Hl Atlas — D7PA — position and weather

sailwx.info

Track history (hours):
 
Tides and Currents Weather Stations Pressure Air Temp Water Temp Dewpoint Dewpoint Depression Visibility Wind Speed Wind Dir Waves Ship Positions

Hl Atlas

Last reported at 2018-Jun-18 04:53 UTC. Time now 2018-Jun-21 13:56 UTC.
Position S 34°46' E 018°26'.

Length 270 m; draft 16.3 m.

Type: Cargo ship. MMSI: 440332000.

Date/timePositionNaut miles runAvg speedWind from/ knotsBaromVisibWave heightAir tempDewpointWater temp
2018-Jun-18 04:53S 34°46' E 018°26'410.3
2018-Jun-18 04:31S 34°45' E 018°22'710.2
2018-Jun-18 03:52S 34°43' E 018°14'910.1
2018-Jun-18 02:59S 34°41' E 018°03'1210.2
2018-Jun-18 01:50S 34°35' E 017°51'410.2
2018-Jun-18 01:25S 34°33' E 017°47'810.6
2018-Jun-18 00:40S 34°28' E 017°39'310.8
2018-Jun-18 00:25S 34°27' E 017°36'510.9
2018-Jun-17 23:56S 34°24' E 017°31'510.8
2018-Jun-17 23:28S 34°21' E 017°26'510.8
2018-Jun-17 22:59S 34°18' E 017°21'  
Track history (hours):
 
Tides and Currents Weather Stations Pressure Air Temp Water Temp Dewpoint Dewpoint Depression Visibility Wind Speed Wind Dir Waves Ship Positions

Hl Atlas

Last reported at 2018-Jun-18 04:53 UTC. Time now 2018-Jun-21 13:56 UTC.
Position S 34°46' E 018°26'.

Length 270 m; draft 16.3 m.

Type: Cargo ship. MMSI: 440332000.

Date/timePositionNaut miles runAvg speedWind from/ knotsBaromVisibWave heightAir tempDewpointWater temp
2018-Jun-18 04:53S 34°46' E 018°26'410.3
2018-Jun-18 04:31S 34°45' E 018°22'710.2
2018-Jun-18 03:52S 34°43' E 018°14'910.1
2018-Jun-18 02:59S 34°41' E 018°03'1210.2
2018-Jun-18 01:50S 34°35' E 017°51'410.2
2018-Jun-18 01:25S 34°33' E 017°47'810.6
2018-Jun-18 00:40S 34°28' E 017°39'310.8
2018-Jun-18 00:25S 34°27' E 017°36'510.9
2018-Jun-17 23:56S 34°24' E 017°31'510.8
2018-Jun-17 23:28S 34°21' E 017°26'510.8
2018-Jun-17 22:59S 34°18' E 017°21'  

Dump ship's entire track history